YMDG

Details ICAO YMDG (DGE)
Name Mudgee
Region Australia
Timezone Australia/Sydney (UTC+11.0)
Plans Departing 1
Arriving 2
Stats Elevation 1,545 ft / 471 m (AMSL)
Location -32.562305° 149.610683°
Runways 2
Magnetic Variation 11.554° E
Sunrise 2017-12-11 18:48:58 UTC / 2017-12-12 05:48:58 Local
Sunset 2017-12-12 09:04:06 UTC / 2017-12-12 20:04:06 Local
Advertisement - Login to hide

Runways

ID Width Length Bearing (true) Bearing (mag) Surface Threshold Offset Overrun Length
04 98 ft / 30 m 5,699 ft / 1,737 m 52.00° 40.45° Asphalt 0 ft / 0 m 0 ft / 0 m
16 295 ft / 90 m 3,942 ft / 1,201 m 170.69° 159.14° Grass 0 ft / 0 m 0 ft / 0 m
22 98 ft / 30 m 5,699 ft / 1,737 m 232.00° 220.45° Asphalt 0 ft / 0 m 0 ft / 0 m
34 295 ft / 90 m 3,942 ft / 1,201 m 350.68° 339.13° Grass 0 ft / 0 m 0 ft / 0 m

Map

Weather


0- 5 10 15 20 25 30 35+ Temperature / ° C

Clouds and Precipitation
Forecast for 2017-12-12 06:00 UTC. Updated an hour ago

Ground ~20,000 ft ~40,000 ft Winds

METAR

YMDG 120400Z AUTO 30005KT 240V030 9999 // NCD 31/10 Q1016

TAF

Not found

Frequencies

Unicom 122.30 MHz ACTIVATE LIGHTS ONLY MULT
Tower 133.05 MHz BRISBANE CNTR
Unicom 126.70 MHz MUDGEE MULT
Warning: Do not use this data for real-world aviation or navigation. No guarantee of current accuracy is given.